Terminal Aerodrome Forecast
Issued by NWS

Home | Current Version | Previous Version | Text Only | Print | Product List | Glossary On
Versions: 1 2 3 4 5 6 7 8 9 10 11 12 13 14 15 16 17 18
000
FTUS43 KUNR 230918 AAA
TAFGCC
TAF AMD
KGCC 230918Z 2309/2406 20011KT P6SM SCT150
     FM231700 22013KT P6SM SCT250
     FM232300 26011KT P6SM SCT250=

USA.gov is the U.S. government's official web portal to all federal, state and local government web resources and services.